Sereno, Missouri
Current Conditions -  °F | °C
As of 6:35 PM on Wednesday 26 Nov 2014 (Local Time) from KFAM Reporting Station
Broken Clouds Broken Clouds  
Wind Chill: 28°   Ceiling: 1900
Heat Index: 36°   Visibility: 10mi
Dew Point: 32°   Wind: 10mph
Humidity: 87%   Direction: 290°WNW
Pressure: 30.05"   Gusts: NA
Location:  37.7127°N, 89.8903°W
Report Text: KFAM 270035Z AUTO 29009KT 10SM FEW010 SCT014 BKN019 02/00 A3005 RMK AO1 P0003
Loading
Personal Weather Stations






























Interactive Weather Map New forecast layout! Learn more

10-Day Weather Forecast

Advertisements
Track Severe Weather on mobile